»·PEaware :: N5491J KBUR-KSNA

N5491J :: KBUR-KSNA

FLIGHT INFORMATION

Flight Status: Arrived
Operator: Privately registered:
United States
More flights under this callsign
Pilot: Aero Safety Training (369)
Aircraft: CESSNA 172 SKYHAWK
(C172)
More flights by this aircraft type
Origin: KBUR Bob Hope-Burbank
United States
Destination: KSNA John Wayne-Orange Co
United States
More flights between these airports :: More routes between these airports
Route: +POM
File this flight plan on PilotEdge
Remarks:
Altitude:
(Current/Filed)
2,500ft
Speed:
(Current/Filed)
105kts
Departed: 07-Feb-15 10:15 AM
Arrived: 07-Feb-15 10:50 AM
Distance/Time
Traveled:
40nm/0:35
Distance/Time
To Go:
Arrived

Flight Plot

Page will automatically refresh every two minutes.

Flight plan parsing failed; only flown route is shown


Map Options




Map Legend


Flown Route
Filed Route
Departure Airport
Arrival Airport
Navaid (VOR, NDB)
Fix

Horizontal Profiles

Position Reports

Time Latitude Longitude Heading Altitude Ground
Speed
07-Feb-15 09:54 34.199934 -118.359542 76 781ft 0kts
07-Feb-15 09:55 34.199934 -118.359541 76 781ft 0kts
07-Feb-15 09:56 34.199935 -118.359540 76 781ft 0kts
07-Feb-15 09:57 34.199745 -118.358708 159 781ft 6kts
07-Feb-15 09:58 34.199158 -118.358202 138 781ft 0kts
07-Feb-15 09:59 34.199087 -118.358126 137 781ft 2kts
07-Feb-15 10:00 34.199057 -118.358094 137 781ft 0kts
07-Feb-15 10:01 34.199744 -118.358691 290 781ft 6kts
07-Feb-15 10:02 34.199609 -118.358861 169 781ft 0kts
07-Feb-15 10:03 34.199353 -118.358141 35 781ft 7kts
07-Feb-15 10:04 34.203744 -118.359104 346 781ft 20kts
07-Feb-15 10:05 34.209290 -118.360623 349 781ft 11kts
07-Feb-15 10:06 34.211650 -118.361381 341 781ft 0kts
07-Feb-15 10:07 34.211657 -118.361384 340 781ft 0kts
07-Feb-15 10:08 34.211658 -118.361385 340 781ft 0kts
07-Feb-15 10:09 34.211956 -118.361211 62 781ft 0kts
07-Feb-15 10:10 34.207015 -118.358997 167 861ft 67kts
07-Feb-15 10:11 34.189859 -118.354149 166 1711ft 81kts
07-Feb-15 10:12 34.167490 -118.347265 167 2568ft 93kts
07-Feb-15 10:13 34.136220 -118.341829 166 2484ft 121kts
07-Feb-15 10:14 34.115137 -118.314183 121 2655ft 116kts
07-Feb-15 10:15 34.107948 -118.276518 87 2462ft 117kts
07-Feb-15 10:16 34.112234 -118.241426 71 2534ft 101kts
07-Feb-15 10:17 34.124987 -118.210592 58 2483ft 105kts
07-Feb-15 10:18 34.138054 -118.179805 70 2519ft 98kts
07-Feb-15 10:19 34.141916 -118.147090 86 2582ft 98kts
07-Feb-15 10:20 34.144570 -118.112893 92 2539ft 102kts
07-Feb-15 10:21 34.139514 -118.078744 99 2500ft 104kts
07-Feb-15 10:22 34.134762 -118.044142 101 2459ft 105kts
07-Feb-15 10:23 34.132736 -118.008841 89 2403ft 105kts
07-Feb-15 10:24 34.130567 -117.973857 97 2400ft 102kts
07-Feb-15 10:25 34.123530 -117.942583 108 2591ft 91kts
07-Feb-15 10:26 34.114117 -117.911526 111 2585ft 113kts
07-Feb-15 10:27 34.103045 -117.875637 104 2698ft 116kts
07-Feb-15 10:28 34.094330 -117.836600 113 2688ft 117kts
07-Feb-15 10:29 34.076739 -117.805656 143 2844ft 115kts
07-Feb-15 10:30 34.045312 -117.800797 187 2802ft 119kts
07-Feb-15 10:31 34.012957 -117.794452 148 2781ft 116kts
07-Feb-15 10:32 33.985090 -117.778088 162 2746ft 109kts
07-Feb-15 10:33 33.956609 -117.775813 189 2753ft 101kts
07-Feb-15 10:34 33.931985 -117.787659 206 2873ft 91kts
07-Feb-15 10:35 33.908347 -117.800949 207 2742ft 103kts
07-Feb-15 10:36 33.882552 -117.813090 193 2641ft 99kts
07-Feb-15 10:37 33.854373 -117.820193 191 2390ft 107kts
07-Feb-15 10:38 33.826333 -117.827564 190 2423ft 102kts
07-Feb-15 10:39 33.798989 -117.832820 189 2501ft 102kts
07-Feb-15 10:40 33.770371 -117.841886 193 2390ft 108kts
07-Feb-15 10:41 33.740828 -117.848606 184 2213ft 98kts
07-Feb-15 10:42 33.716435 -117.851733 186 1444ft 76kts
07-Feb-15 10:43 33.697223 -117.856727 196 817ft 64kts
07-Feb-15 10:44 33.681594 -117.865119 205 101ft 57kts
07-Feb-15 10:45 33.678339 -117.867958 288 59ft 0kts
07-Feb-15 10:46 33.678388 -117.868103 294 59ft 0kts
07-Feb-15 10:47 33.678389 -117.868840 226 59ft 10kts
07-Feb-15 10:48 33.677147 -117.870703 354 59ft 0kts

Navigation Log

Ident Type
Flight plan parsing failed, navigation log unavailable